createdAt,value
2018-09-09T00:00:55.873Z,15.88
2018-09-09T00:01:55.860Z,15.81
2018-09-09T00:02:56.159Z,15.81
2018-09-09T00:03:56.444Z,15.81
2018-09-09T00:04:55.860Z,15.81
2018-09-09T00:05:56.218Z,15.81
2018-09-09T00:06:56.026Z,15.81
2018-09-09T00:07:55.823Z,15.81
2018-09-09T00:08:56.041Z,15.81
2018-09-09T00:09:55.969Z,15.81
2018-09-09T00:10:55.826Z,15.81
2018-09-09T00:11:56.165Z,15.81
2018-09-09T00:12:55.964Z,15.81
2018-09-09T00:13:55.962Z,15.81
2018-09-09T00:14:55.897Z,15.81
2018-09-09T00:15:55.920Z,15.88
2018-09-09T00:16:55.801Z,15.81
2018-09-09T00:17:56.054Z,15.81
2018-09-09T00:18:55.821Z,15.81
2018-09-09T00:19:55.861Z,15.81
2018-09-09T00:20:55.838Z,15.81
2018-09-09T00:21:56.095Z,15.75
2018-09-09T00:22:55.866Z,15.81
2018-09-09T00:23:56.040Z,15.81
2018-09-09T00:24:55.837Z,15.75
2018-09-09T00:25:55.953Z,15.81
2018-09-09T00:26:55.820Z,15.81
2018-09-09T00:27:55.855Z,15.81
2018-09-09T00:28:55.827Z,15.81
2018-09-09T00:29:55.843Z,15.81
2018-09-09T00:30:55.827Z,15.81
2018-09-09T00:31:55.827Z,15.81
2018-09-09T00:32:55.824Z,15.81
2018-09-09T00:33:55.793Z,15.81
2018-09-09T00:34:56.140Z,15.75
2018-09-09T00:35:55.787Z,15.75
2018-09-09T00:36:55.868Z,15.75
2018-09-09T00:37:55.805Z,15.75
2018-09-09T00:38:55.879Z,15.75
2018-09-09T00:39:55.880Z,15.75
2018-09-09T00:40:55.800Z,15.69
2018-09-09T00:41:55.825Z,15.69
2018-09-09T00:42:55.840Z,15.69
2018-09-09T00:43:55.814Z,15.69
2018-09-09T00:44:55.847Z,15.69
2018-09-09T00:45:55.791Z,15.69
2018-09-09T00:46:55.857Z,15.69
2018-09-09T00:47:56.284Z,15.69
2018-09-09T00:48:55.806Z,15.69
2018-09-09T00:49:56.116Z,15.69
2018-09-09T00:50:55.912Z,15.69
2018-09-09T00:51:55.785Z,15.69
2018-09-09T00:52:55.816Z,15.69
2018-09-09T00:53:55.857Z,15.69
2018-09-09T00:54:55.839Z,15.63
2018-09-09T00:55:55.831Z,15.69
2018-09-09T00:56:55.917Z,15.69
2018-09-09T00:57:55.789Z,15.69
2018-09-09T00:58:55.806Z,15.69
2018-09-09T00:59:55.930Z,15.63
2018-09-09T01:00:55.813Z,15.69
2018-09-09T01:01:55.780Z,15.63
2018-09-09T01:02:55.997Z,15.63
2018-09-09T01:03:55.858Z,15.63
2018-09-09T01:04:55.864Z,15.63
2018-09-09T01:05:55.957Z,15.63
2018-09-09T01:06:55.802Z,15.56
2018-09-09T01:07:55.916Z,15.56
2018-09-09T01:08:55.806Z,15.56
2018-09-09T01:09:56.239Z,15.56
2018-09-09T01:10:55.804Z,15.56
2018-09-09T01:11:56.330Z,15.56
2018-09-09T01:12:55.839Z,15.56
2018-09-09T01:13:55.872Z,15.5
2018-09-09T01:14:56.263Z,15.56
2018-09-09T01:15:56.375Z,15.56
2018-09-09T01:16:55.870Z,15.5
2018-09-09T01:17:56.394Z,15.56
2018-09-09T01:18:55.967Z,15.5
2018-09-09T01:19:56.081Z,15.5
2018-09-09T01:20:56.228Z,15.5
2018-09-09T01:21:56.333Z,15.5
2018-09-09T01:22:55.861Z,15.5
2018-09-09T01:23:55.885Z,15.56
2018-09-09T01:24:55.976Z,15.5
2018-09-09T01:25:55.811Z,15.5
2018-09-09T01:26:55.828Z,15.56
2018-09-09T01:27:55.778Z,15.5
2018-09-09T01:28:55.818Z,15.56
2018-09-09T01:29:55.928Z,15.56
2018-09-09T01:30:55.785Z,15.56
2018-09-09T01:31:56.007Z,15.56
2018-09-09T01:32:55.814Z,15.5
2018-09-09T01:33:55.782Z,15.56
2018-09-09T01:34:56.174Z,15.5
2018-09-09T01:35:55.802Z,15.56
2018-09-09T01:36:55.846Z,15.56
2018-09-09T01:37:55.816Z,15.56
2018-09-09T01:38:55.772Z,15.56
2018-09-09T01:39:55.881Z,15.56
2018-09-09T01:40:55.877Z,15.56
2018-09-09T01:41:55.804Z,15.56
2018-09-09T01:42:55.967Z,15.56
2018-09-09T01:43:56.368Z,15.56
2018-09-09T01:44:56.158Z,15.56
2018-09-09T01:45:55.770Z,15.56
2018-09-09T01:46:55.850Z,15.56
2018-09-09T01:47:55.790Z,15.56
2018-09-09T01:48:55.785Z,15.56
2018-09-09T01:49:55.952Z,15.56
2018-09-09T01:50:55.794Z,15.56
2018-09-09T01:51:55.894Z,15.56
2018-09-09T01:52:55.855Z,15.56
2018-09-09T01:53:55.792Z,15.56
2018-09-09T01:54:55.808Z,15.56
2018-09-09T01:55:55.790Z,15.56
2018-09-09T01:56:55.910Z,15.56
2018-09-09T01:57:55.868Z,15.5
2018-09-09T01:58:56.151Z,15.5
2018-09-09T01:59:55.790Z,15.5
2018-09-09T02:00:55.784Z,15.5
2018-09-09T02:01:55.843Z,15.5
2018-09-09T02:02:56.085Z,15.5
2018-09-09T02:03:55.806Z,15.5
2018-09-09T02:04:55.858Z,15.44
2018-09-09T02:05:55.872Z,15.5
2018-09-09T02:06:55.851Z,15.44
2018-09-09T02:07:56.159Z,15.5
2018-09-09T02:08:55.851Z,15.44
2018-09-09T02:09:56.086Z,15.44
2018-09-09T02:10:55.921Z,15.5
2018-09-09T02:11:56.137Z,15.5
2018-09-09T02:12:55.979Z,15.5
2018-09-09T02:13:55.972Z,15.44
2018-09-09T02:14:55.968Z,15.44
2018-09-09T02:15:56.418Z,15.44
2018-09-09T02:16:56.024Z,15.44
2018-09-09T02:17:56.215Z,15.44
2018-09-09T02:18:55.860Z,15.44
2018-09-09T02:19:55.831Z,15.38
2018-09-09T02:20:55.803Z,15.44
2018-09-09T02:21:55.772Z,15.38
2018-09-09T02:22:55.816Z,15.38
2018-09-09T02:23:55.905Z,15.38
2018-09-09T02:24:56.253Z,15.38
2018-09-09T02:25:57.416Z,15.38
2018-09-09T02:26:55.917Z,15.38
2018-09-09T02:27:55.771Z,15.38
2018-09-09T02:28:56.253Z,15.31
2018-09-09T02:29:55.843Z,15.31
2018-09-09T02:30:55.934Z,15.38
2018-09-09T02:31:55.827Z,15.31
2018-09-09T02:32:55.760Z,15.31
2018-09-09T02:33:55.784Z,15.31
2018-09-09T02:34:55.786Z,15.31
2018-09-09T02:35:55.800Z,15.25
2018-09-09T02:36:55.796Z,15.31
2018-09-09T02:37:56.236Z,15.25
2018-09-09T02:38:55.917Z,15.25
2018-09-09T02:39:55.834Z,15.25
2018-09-09T02:40:55.855Z,15.19
2018-09-09T02:41:55.808Z,15.13
2018-09-09T02:42:55.829Z,15.13
2018-09-09T02:43:56.169Z,15.13
2018-09-09T02:44:56.158Z,15.13
2018-09-09T02:45:55.840Z,15.13
2018-09-09T02:46:55.833Z,15.13
2018-09-09T02:47:55.846Z,15.13
2018-09-09T02:48:55.751Z,15.06
2018-09-09T02:49:55.774Z,15.06
2018-09-09T02:50:55.835Z,15.06
2018-09-09T02:51:55.873Z,15
2018-09-09T02:52:55.767Z,15.06
2018-09-09T02:53:55.890Z,15
2018-09-09T02:54:55.837Z,15
2018-09-09T02:55:55.753Z,15
2018-09-09T02:56:55.805Z,15
2018-09-09T02:57:55.943Z,14.94
2018-09-09T02:58:55.925Z,14.94
2018-09-09T02:59:55.825Z,14.94
2018-09-09T03:00:55.869Z,14.94
2018-09-09T03:01:55.933Z,14.87
2018-09-09T03:02:55.745Z,14.87
2018-09-09T03:03:56.152Z,14.87
2018-09-09T03:04:55.783Z,14.87
2018-09-09T03:05:55.905Z,14.81
2018-09-09T03:06:55.762Z,14.81
2018-09-09T03:07:55.780Z,14.81
2018-09-09T03:08:55.826Z,14.81
2018-09-09T03:09:55.803Z,14.81
2018-09-09T03:10:55.801Z,14.81
2018-09-09T03:11:55.774Z,14.75
2018-09-09T03:12:55.742Z,14.75
2018-09-09T03:13:55.855Z,14.75
2018-09-09T03:14:55.917Z,14.81
2018-09-09T03:15:55.763Z,14.81
2018-09-09T03:16:55.769Z,14.75
2018-09-09T03:17:55.745Z,14.81
2018-09-09T03:18:55.764Z,14.75
2018-09-09T03:19:55.740Z,14.81
2018-09-09T03:20:55.756Z,14.81
2018-09-09T03:21:55.742Z,14.81
2018-09-09T03:22:55.737Z,14.75
2018-09-09T03:23:55.744Z,14.81
2018-09-09T03:24:55.923Z,14.81
2018-09-09T03:25:55.746Z,14.75
2018-09-09T03:26:55.764Z,14.75
2018-09-09T03:27:55.858Z,14.69
2018-09-09T03:28:56.155Z,14.69
2018-09-09T03:29:55.947Z,14.69
2018-09-09T03:30:55.857Z,14.63
2018-09-09T03:31:55.799Z,14.63
2018-09-09T03:32:55.717Z,14.63
2018-09-09T03:33:55.900Z,14.56
2018-09-09T03:34:55.760Z,14.56
2018-09-09T03:35:55.785Z,14.56
2018-09-09T03:36:56.312Z,14.56
2018-09-09T03:37:55.743Z,14.5
2018-09-09T03:38:55.778Z,14.44
2018-09-09T03:39:55.735Z,14.5
2018-09-09T03:40:55.731Z,14.44
2018-09-09T03:41:55.823Z,14.44
2018-09-09T03:42:55.806Z,14.38
2018-09-09T03:43:56.016Z,14.38
2018-09-09T03:44:56.036Z,14.38
2018-09-09T03:45:55.863Z,14.38
2018-09-09T03:46:55.733Z,14.38
2018-09-09T03:47:55.739Z,14.31
2018-09-09T03:48:55.743Z,14.31
2018-09-09T03:49:55.723Z,14.31
2018-09-09T03:50:55.919Z,14.25
2018-09-09T03:51:55.767Z,14.25
2018-09-09T03:52:55.918Z,14.25
2018-09-09T03:53:55.748Z,14.25
2018-09-09T03:54:55.874Z,14.19
2018-09-09T03:55:55.779Z,14.19
2018-09-09T03:56:55.765Z,14.13
2018-09-09T03:57:55.849Z,14.13
2018-09-09T03:58:56.148Z,14.13
2018-09-09T03:59:55.759Z,14.06
2018-09-09T04:00:55.838Z,14.06
2018-09-09T04:01:55.744Z,14.06
2018-09-09T04:02:55.780Z,14.06
2018-09-09T04:03:56.156Z,14.06
2018-09-09T04:04:56.272Z,14
2018-09-09T04:05:55.725Z,14
2018-09-09T04:06:55.750Z,14
2018-09-09T04:07:55.770Z,14
2018-09-09T04:08:55.767Z,14
2018-09-09T04:09:56.231Z,13.94
2018-09-09T04:10:55.842Z,14
2018-09-09T04:11:55.801Z,14
2018-09-09T04:12:55.751Z,14
2018-09-09T04:13:55.798Z,13.94
2018-09-09T04:14:55.808Z,13.94
2018-09-09T04:15:55.898Z,14
2018-09-09T04:16:55.739Z,13.94
2018-09-09T04:17:55.792Z,14
2018-09-09T04:18:55.953Z,13.94
2018-09-09T04:19:55.734Z,14
2018-09-09T04:20:55.750Z,14
2018-09-09T04:21:55.773Z,14
2018-09-09T04:22:55.760Z,14
2018-09-09T04:23:55.785Z,13.94
2018-09-09T04:24:56.173Z,13.94
2018-09-09T04:25:55.776Z,13.94
2018-09-09T04:26:55.779Z,13.94
2018-09-09T04:27:55.748Z,13.94
2018-09-09T04:28:55.756Z,13.94
2018-09-09T04:29:55.788Z,13.94
2018-09-09T04:30:56.468Z,13.94
2018-09-09T04:31:55.793Z,13.94
2018-09-09T04:32:55.779Z,13.94
2018-09-09T04:33:55.793Z,13.94
2018-09-09T04:34:56.344Z,13.94
2018-09-09T04:35:55.758Z,13.94
2018-09-09T04:36:55.810Z,13.94
2018-09-09T04:37:55.784Z,13.94
2018-09-09T04:38:55.748Z,13.94
2018-09-09T04:39:55.828Z,13.88
2018-09-09T04:40:55.737Z,13.94
2018-09-09T04:41:55.787Z,13.88
2018-09-09T04:42:55.746Z,13.88
2018-09-09T04:43:55.814Z,13.88
2018-09-09T04:44:55.754Z,13.94
2018-09-09T04:45:55.786Z,13.94
2018-09-09T04:46:55.845Z,13.88
2018-09-09T04:47:55.769Z,13.88
2018-09-09T04:48:55.815Z,13.88
2018-09-09T04:49:55.785Z,13.88
2018-09-09T04:50:55.833Z,13.88
2018-09-09T04:51:55.765Z,13.88
2018-09-09T04:52:56.111Z,13.88
2018-09-09T04:53:55.789Z,13.81
2018-09-09T04:54:55.765Z,13.81
2018-09-09T04:55:55.783Z,13.88
2018-09-09T04:56:55.891Z,13.81
2018-09-09T04:57:55.748Z,13.88
2018-09-09T04:58:56.243Z,13.81
2018-09-09T04:59:55.821Z,13.88
2018-09-09T05:00:55.962Z,13.81
2018-09-09T05:01:55.864Z,13.81
2018-09-09T05:02:55.759Z,13.81
2018-09-09T05:03:55.757Z,13.81
2018-09-09T05:04:55.805Z,13.81
2018-09-09T05:05:56.057Z,13.75
2018-09-09T05:06:55.786Z,13.75
2018-09-09T05:07:55.799Z,13.75
2018-09-09T05:08:55.970Z,13.75
2018-09-09T05:09:56.283Z,13.75
2018-09-09T05:10:55.809Z,13.69
2018-09-09T05:11:55.814Z,13.69
2018-09-09T05:12:55.877Z,13.75
2018-09-09T05:13:56.010Z,13.69
2018-09-09T05:14:55.810Z,13.69
2018-09-09T05:15:56.184Z,13.69
2018-09-09T05:16:55.793Z,13.69
2018-09-09T05:17:55.778Z,13.75
2018-09-09T05:18:55.791Z,13.69
2018-09-09T05:19:55.830Z,13.69
2018-09-09T05:20:55.800Z,13.69
2018-09-09T05:21:55.880Z,13.75
2018-09-09T05:22:56.268Z,13.69
2018-09-09T05:23:55.811Z,13.69
2018-09-09T05:24:56.071Z,13.75
2018-09-09T05:25:55.907Z,13.69
2018-09-09T05:26:55.813Z,13.75
2018-09-09T05:27:55.797Z,13.75
2018-09-09T05:28:55.792Z,13.75
2018-09-09T05:29:55.773Z,13.75
2018-09-09T05:30:55.852Z,13.81
2018-09-09T05:31:55.773Z,13.81
2018-09-09T05:32:56.137Z,13.81
2018-09-09T05:33:55.836Z,13.81
2018-09-09T05:34:55.764Z,13.81
2018-09-09T05:35:55.902Z,13.81
2018-09-09T05:36:55.845Z,13.81
2018-09-09T05:37:55.897Z,13.75
2018-09-09T05:38:55.970Z,13.81
2018-09-09T05:39:56.523Z,13.81
2018-09-09T05:40:55.814Z,13.81
2018-09-09T05:41:55.954Z,13.81
2018-09-09T05:42:55.878Z,13.75
2018-09-09T05:43:56.070Z,13.81
2018-09-09T05:44:55.798Z,13.75
2018-09-09T05:45:55.820Z,13.75
2018-09-09T05:46:56.099Z,13.75
2018-09-09T05:47:55.871Z,13.75
2018-09-09T05:48:55.790Z,13.75
2018-09-09T05:49:55.963Z,13.75
2018-09-09T05:50:55.826Z,13.81
2018-09-09T05:51:56.196Z,13.81
2018-09-09T05:52:55.887Z,13.81
2018-09-09T05:53:56.529Z,13.88
2018-09-09T05:54:55.829Z,13.81
2018-09-09T05:55:56.234Z,13.88
2018-09-09T05:56:55.804Z,13.88
2018-09-09T05:57:55.798Z,13.88
2018-09-09T05:58:55.828Z,13.88
2018-09-09T05:59:55.786Z,13.94
2018-09-09T06:00:55.829Z,13.94
2018-09-09T06:01:55.816Z,13.94
2018-09-09T06:02:55.794Z,13.94
2018-09-09T06:03:55.785Z,13.94
2018-09-09T06:04:55.815Z,13.94
2018-09-09T06:05:55.885Z,14
2018-09-09T06:06:55.788Z,14
2018-09-09T06:07:56.433Z,14
2018-09-09T06:08:55.806Z,14.06
2018-09-09T06:09:55.791Z,14
2018-09-09T06:10:55.796Z,14
2018-09-09T06:11:55.887Z,14
2018-09-09T06:12:55.911Z,14.06
2018-09-09T06:13:55.856Z,14.06
2018-09-09T06:14:56.171Z,14.06
2018-09-09T06:15:55.911Z,14.06
2018-09-09T06:16:55.885Z,14.06
2018-09-09T06:17:55.832Z,14.13
2018-09-09T06:18:55.852Z,14.13
2018-09-09T06:19:55.884Z,14.13
2018-09-09T06:20:55.922Z,14.19
2018-09-09T06:21:55.837Z,14.13
2018-09-09T06:22:56.557Z,14.19
2018-09-09T06:23:55.808Z,14.13
2018-09-09T06:24:56.125Z,14.13
2018-09-09T06:25:55.831Z,14.19
2018-09-09T06:26:55.816Z,14.13
2018-09-09T06:27:55.835Z,14.13
2018-09-09T06:28:56.338Z,14.19
2018-09-09T06:29:55.850Z,14.19
2018-09-09T06:30:55.830Z,14.19
2018-09-09T06:31:56.061Z,14.25
2018-09-09T06:32:55.861Z,14.25
2018-09-09T06:33:56.782Z,14.25
2018-09-09T06:34:59.300Z,14.25
2018-09-09T06:35:55.826Z,14.25
2018-09-09T06:36:56.243Z,14.31
2018-09-09T06:37:55.827Z,14.31
2018-09-09T06:38:56.230Z,14.38
2018-09-09T06:39:55.832Z,14.44
2018-09-09T06:40:56.043Z,14.5
2018-09-09T06:41:55.911Z,14.5
2018-09-09T06:42:55.933Z,14.56
2018-09-09T06:43:55.815Z,14.63
2018-09-09T06:44:55.824Z,14.69
2018-09-09T06:45:55.881Z,14.69
2018-09-09T06:46:56.243Z,14.75
2018-09-09T06:47:55.900Z,14.81
2018-09-09T06:48:55.844Z,14.75
2018-09-09T06:49:55.839Z,14.87
2018-09-09T06:50:55.849Z,14.87
2018-09-09T06:51:55.890Z,14.87
2018-09-09T06:52:55.858Z,14.94
2018-09-09T06:53:55.954Z,15
2018-09-09T06:54:56.222Z,15
2018-09-09T06:55:55.840Z,15.06
2018-09-09T06:56:55.876Z,15.06
2018-09-09T06:57:55.862Z,15.13
2018-09-09T06:58:56.264Z,15.19
2018-09-09T06:59:56.144Z,15.25
2018-09-09T07:00:55.866Z,15.25
2018-09-09T07:01:56.280Z,15.25
2018-09-09T07:02:55.863Z,15.38
2018-09-09T07:03:56.502Z,15.38
2018-09-09T07:04:56.087Z,15.44
2018-09-09T07:05:55.853Z,15.5
2018-09-09T07:06:55.872Z,15.5
2018-09-09T07:07:56.052Z,15.56
2018-09-09T07:08:55.845Z,15.56
2018-09-09T07:09:56.067Z,15.5
2018-09-09T07:10:57.974Z,15.5
2018-09-09T07:11:58.367Z,15.5
2018-09-09T07:12:55.913Z,15.63
2018-09-09T07:13:56.191Z,15.63
2018-09-09T07:14:55.835Z,15.69
2018-09-09T07:15:55.894Z,15.75
2018-09-09T07:16:56.065Z,15.75
2018-09-09T07:17:55.846Z,15.75
2018-09-09T07:18:56.036Z,15.81
2018-09-09T07:19:55.844Z,15.88
2018-09-09T07:20:55.853Z,15.88
2018-09-09T07:21:55.854Z,15.88
2018-09-09T07:22:55.857Z,15.88
2018-09-09T07:23:55.826Z,15.94
2018-09-09T07:24:55.893Z,15.94
2018-09-09T07:25:55.872Z,16
2018-09-09T07:26:57.432Z,16
2018-09-09T07:27:55.855Z,16
2018-09-09T07:28:55.943Z,16
2018-09-09T07:29:55.844Z,16.06
2018-09-09T07:30:55.902Z,16.06
2018-09-09T07:31:55.876Z,16.12
2018-09-09T07:32:55.949Z,16.19
2018-09-09T07:33:56.267Z,16.19
2018-09-09T07:34:56.129Z,16.25
2018-09-09T07:35:55.905Z,16.31
2018-09-09T07:36:55.883Z,16.31
2018-09-09T07:37:56.064Z,16.37
2018-09-09T07:38:55.903Z,16.31
2018-09-09T07:39:55.920Z,16.37
2018-09-09T07:40:55.840Z,16.44
2018-09-09T07:41:56.447Z,16.44
2018-09-09T07:42:55.937Z,16.5
2018-09-09T07:43:56.226Z,16.56
2018-09-09T07:44:56.023Z,16.56
2018-09-09T07:45:55.949Z,16.56
2018-09-09T07:46:56.096Z,16.56
2018-09-09T07:47:55.992Z,16.62
2018-09-09T07:48:55.941Z,16.62
2018-09-09T07:49:55.891Z,16.75
2018-09-09T07:50:56.269Z,16.75
2018-09-09T07:51:55.916Z,16.81
2018-09-09T07:52:55.881Z,16.87
2018-09-09T07:53:56.604Z,16.94
2018-09-09T07:54:56.014Z,17
2018-09-09T07:55:55.929Z,17
2018-09-09T07:56:55.867Z,17.06
2018-09-09T07:57:56.363Z,17.12
2018-09-09T07:58:55.938Z,17.19
2018-09-09T07:59:55.852Z,17.19
2018-09-09T08:00:55.992Z,17.19
2018-09-09T08:01:55.899Z,17.25
2018-09-09T08:02:55.909Z,17.31
2018-09-09T08:03:55.896Z,17.31
2018-09-09T08:04:55.862Z,17.25
2018-09-09T08:05:55.989Z,17.31
2018-09-09T08:06:55.963Z,17.37
2018-09-09T08:07:55.903Z,17.37
2018-09-09T08:08:55.877Z,17.44
2018-09-09T08:09:55.932Z,17.44
2018-09-09T08:10:56.048Z,17.44
2018-09-09T08:11:56.313Z,17.37
2018-09-09T08:12:55.915Z,17.37
2018-09-09T08:13:55.936Z,17.37
2018-09-09T08:14:55.891Z,17.37
2018-09-09T08:15:55.862Z,17.37
2018-09-09T08:16:55.882Z,17.44
2018-09-09T08:17:55.873Z,17.44
2018-09-09T08:18:56.280Z,17.5
2018-09-09T08:19:56.523Z,17.5
2018-09-09T08:20:55.872Z,17.5
2018-09-09T08:21:56.307Z,17.56
2018-09-09T08:22:55.912Z,17.56
2018-09-09T08:23:55.899Z,17.56
2018-09-09T08:24:56.144Z,17.56
2018-09-09T08:25:56.098Z,17.56
2018-09-09T08:26:56.084Z,17.56
2018-09-09T08:27:55.916Z,17.56
2018-09-09T08:28:56.129Z,17.62
2018-09-09T08:29:56.032Z,17.62
2018-09-09T08:30:55.918Z,17.62
2018-09-09T08:31:56.311Z,17.69
2018-09-09T08:32:55.919Z,17.75
2018-09-09T08:33:55.873Z,17.75
2018-09-09T08:34:56.871Z,17.81
2018-09-09T08:35:55.867Z,17.81
2018-09-09T08:36:56.003Z,17.81
2018-09-09T08:37:56.122Z,17.81
2018-09-09T08:38:55.888Z,17.81
2018-09-09T08:39:55.894Z,17.87
2018-09-09T08:40:55.943Z,17.87
2018-09-09T08:41:55.870Z,17.87
2018-09-09T08:42:56.072Z,17.87
2018-09-09T08:43:55.875Z,17.87
2018-09-09T08:44:55.921Z,17.87
2018-09-09T08:45:55.890Z,17.87
2018-09-09T08:46:55.893Z,17.94
2018-09-09T08:47:55.924Z,17.94
2018-09-09T08:48:55.887Z,17.94
2018-09-09T08:49:55.908Z,17.94
2018-09-09T08:50:55.931Z,17.94
2018-09-09T08:51:56.802Z,17.94
2018-09-09T08:52:55.964Z,17.94
2018-09-09T08:53:55.982Z,17.94
2018-09-09T08:54:55.895Z,18
2018-09-09T08:55:56.125Z,18
2018-09-09T08:56:55.990Z,18
2018-09-09T08:57:55.947Z,18
2018-09-09T08:58:55.899Z,18
2018-09-09T08:59:55.883Z,18
2018-09-09T09:00:55.947Z,18
2018-09-09T09:01:55.884Z,18
2018-09-09T09:02:55.915Z,18
2018-09-09T09:04:03.153Z,18
2018-09-09T09:04:56.107Z,18.06
2018-09-09T09:05:56.127Z,18.06
2018-09-09T09:06:56.164Z,18.06
2018-09-09T09:07:57.260Z,18.06
2018-09-09T09:08:56.707Z,18.06
2018-09-09T09:09:55.923Z,18.12
2018-09-09T09:10:55.965Z,18.12
2018-09-09T09:11:55.977Z,18.12
2018-09-09T09:12:56.079Z,18.12
2018-09-09T09:13:56.398Z,18.19
2018-09-09T09:14:55.973Z,18.12
2018-09-09T09:15:56.196Z,18.19
2018-09-09T09:16:56.179Z,18.19
2018-09-09T09:17:55.897Z,18.19
2018-09-09T09:18:55.931Z,18.19
2018-09-09T09:19:56.096Z,18.25
2018-09-09T09:20:56.456Z,18.31
2018-09-09T09:21:55.988Z,18.31
2018-09-09T09:22:56.115Z,18.31
2018-09-09T09:23:56.075Z,18.31
2018-09-09T09:24:56.032Z,18.31
2018-09-09T09:25:56.063Z,18.37
2018-09-09T09:26:56.348Z,18.37
2018-09-09T09:27:55.988Z,18.44
2018-09-09T09:28:55.923Z,18.44
2018-09-09T09:29:56.014Z,18.44
2018-09-09T09:30:55.968Z,18.5
2018-09-09T09:31:56.156Z,18.44
2018-09-09T09:32:55.896Z,18.44
2018-09-09T09:33:56.127Z,18.5
2018-09-09T09:34:56.109Z,18.44
2018-09-09T09:35:55.914Z,18.5
2018-09-09T09:36:55.995Z,18.56
2018-09-09T09:37:55.978Z,18.56
2018-09-09T09:38:56.327Z,18.62
2018-09-09T09:39:55.971Z,18.62
2018-09-09T09:40:56.182Z,18.69
2018-09-09T09:41:56.501Z,18.69
2018-09-09T09:42:56.136Z,18.69
2018-09-09T09:43:55.948Z,18.69
2018-09-09T09:44:56.287Z,18.75
2018-09-09T09:45:55.913Z,18.75
2018-09-09T09:46:56.196Z,18.81
2018-09-09T09:47:55.952Z,18.87
2018-09-09T09:48:55.908Z,18.94
2018-09-09T09:49:56.149Z,18.94
2018-09-09T09:50:55.899Z,18.87
2018-09-09T09:51:55.945Z,18.87
2018-09-09T09:52:56.088Z,18.87
2018-09-09T09:53:56.150Z,18.94
2018-09-09T09:54:56.238Z,19.06
2018-09-09T09:55:55.955Z,19.06
2018-09-09T09:56:56.083Z,19.19
2018-09-09T09:57:56.176Z,19.25
2018-09-09T09:58:55.935Z,19.31
2018-09-09T09:59:55.975Z,19.44
2018-09-09T10:00:55.949Z,19.44
2018-09-09T10:01:56.107Z,19.5
2018-09-09T10:02:56.209Z,19.5
2018-09-09T10:03:55.927Z,19.44
2018-09-09T10:04:56.252Z,19.5
2018-09-09T10:05:55.987Z,19.5
2018-09-09T10:06:55.917Z,19.44
2018-09-09T10:07:55.931Z,19.5
2018-09-09T10:08:56.361Z,19.5
2018-09-09T10:09:55.953Z,19.56
2018-09-09T10:10:56.048Z,19.62
2018-09-09T10:11:56.015Z,19.69
2018-09-09T10:12:56.001Z,19.75
2018-09-09T10:13:56.069Z,19.81
2018-09-09T10:14:56.009Z,19.81
2018-09-09T10:15:56.030Z,19.87
2018-09-09T10:16:55.949Z,19.94
2018-09-09T10:17:55.935Z,20
2018-09-09T10:18:56.412Z,20.06
2018-09-09T10:19:55.978Z,20.12
2018-09-09T10:20:55.994Z,20.19
2018-09-09T10:21:55.931Z,20.25
2018-09-09T10:22:55.951Z,20.31
2018-09-09T10:23:57.059Z,20.37
2018-09-09T10:24:56.033Z,20.44
2018-09-09T10:25:55.979Z,20.44
2018-09-09T10:26:56.774Z,20.56
2018-09-09T10:27:56.763Z,20.62
2018-09-09T10:28:56.010Z,20.69
2018-09-09T10:29:57.515Z,20.75
2018-09-09T10:30:56.893Z,20.81
2018-09-09T10:31:56.002Z,20.88
2018-09-09T10:32:56.804Z,20.94
2018-09-09T10:33:56.827Z,20.94
2018-09-09T10:34:56.947Z,21
2018-09-09T10:35:56.999Z,21.06
2018-09-09T10:36:55.959Z,21
2018-09-09T10:37:56.103Z,21
2018-09-09T10:38:57.607Z,21.06
2018-09-09T10:39:55.970Z,21.06
2018-09-09T10:40:57.361Z,21.06
2018-09-09T10:41:57.201Z,21.06
2018-09-09T10:42:56.033Z,21.12
2018-09-09T10:43:57.270Z,21.12
2018-09-09T10:44:56.131Z,21.12
2018-09-09T10:45:56.935Z,21.19
2018-09-09T10:46:57.832Z,21.25
2018-09-09T10:47:56.917Z,21.37
2018-09-09T10:48:56.910Z,21.44
2018-09-09T10:49:56.919Z,21.44
2018-09-09T10:50:56.909Z,21.37
2018-09-09T10:51:56.085Z,21.37
2018-09-09T10:52:56.824Z,21.37
2018-09-09T10:53:56.730Z,21.37
2018-09-09T10:54:57.676Z,21.44
2018-09-09T10:55:55.978Z,21.5
2018-09-09T10:56:56.119Z,21.56
2018-09-09T10:57:56.873Z,21.56
2018-09-09T10:58:57.299Z,21.56
2018-09-09T10:59:56.145Z,21.56
2018-09-09T11:00:56.876Z,21.56
2018-09-09T11:01:56.125Z,21.62
2018-09-09T11:02:56.109Z,21.69
2018-09-09T11:03:56.107Z,21.75
2018-09-09T11:04:56.927Z,21.81
2018-09-09T11:05:56.107Z,21.81
2018-09-09T11:06:57.716Z,21.81
2018-09-09T11:07:56.546Z,21.81
2018-09-09T11:08:56.101Z,21.81
2018-09-09T11:09:56.005Z,21.75
2018-09-09T11:10:56.022Z,21.75
2018-09-09T11:11:56.753Z,21.75
2018-09-09T11:12:58.474Z,21.81
2018-09-09T11:13:56.043Z,21.81
2018-09-09T11:14:56.042Z,21.87
2018-09-09T11:15:56.926Z,21.94
2018-09-09T11:16:56.926Z,22
2018-09-09T11:17:56.871Z,22.06
2018-09-09T11:18:57.222Z,22.06
2018-09-09T11:19:57.404Z,22.13
2018-09-09T11:20:56.168Z,22.19
2018-09-09T11:21:56.015Z,22.19
2018-09-09T11:22:56.900Z,22.31
2018-09-09T11:23:56.822Z,22.31
2018-09-09T11:24:56.184Z,22.37
2018-09-09T11:25:57.262Z,22.44
2018-09-09T11:26:56.200Z,22.5
2018-09-09T11:27:56.064Z,22.5
2018-09-09T11:28:56.070Z,22.5
2018-09-09T11:29:57.419Z,22.5
2018-09-09T11:30:58.096Z,22.5
2018-09-09T11:31:56.080Z,22.44
2018-09-09T11:32:55.982Z,22.44
2018-09-09T11:33:56.013Z,22.5
2018-09-09T11:34:56.179Z,22.5
2018-09-09T11:35:56.153Z,22.56
2018-09-09T11:36:56.086Z,22.56
2018-09-09T11:37:56.002Z,22.62
2018-09-09T11:38:56.187Z,22.69
2018-09-09T11:39:56.032Z,22.75
2018-09-09T11:40:56.176Z,22.81
2018-09-09T11:41:56.121Z,22.87
2018-09-09T11:42:56.063Z,22.94
2018-09-09T11:43:56.139Z,22.94
2018-09-09T11:44:56.376Z,23.06
2018-09-09T11:45:56.046Z,23.12
2018-09-09T11:46:56.234Z,23.19
2018-09-09T11:47:56.042Z,23.25
2018-09-09T11:48:56.079Z,23.25
2018-09-09T11:49:56.292Z,23.31
2018-09-09T11:50:56.066Z,23.38
2018-09-09T11:51:56.100Z,23.38
2018-09-09T11:52:56.029Z,23.44
2018-09-09T11:53:56.119Z,23.44
2018-09-09T11:54:56.251Z,23.5
2018-09-09T11:55:57.216Z,23.5
2018-09-09T11:56:57.414Z,23.56
2018-09-09T11:57:56.120Z,23.56
2018-09-09T11:58:57.133Z,23.62
2018-09-09T11:59:56.041Z,23.62
2018-09-09T12:00:56.151Z,23.56
2018-09-09T12:01:56.235Z,23.56
2018-09-09T12:02:56.296Z,23.56
2018-09-09T12:03:56.281Z,23.69
2018-09-09T12:04:56.320Z,23.69
2018-09-09T12:05:56.242Z,23.69
2018-09-09T12:06:56.209Z,23.62
2018-09-09T12:07:56.168Z,23.69
2018-09-09T12:08:56.111Z,23.62
2018-09-09T12:09:56.118Z,23.69
2018-09-09T12:10:56.219Z,23.75
2018-09-09T12:11:56.249Z,23.75
2018-09-09T12:12:56.438Z,23.87
2018-09-09T12:13:56.288Z,24.06
2018-09-09T12:14:56.245Z,24.06
2018-09-09T12:15:56.360Z,24.12
2018-09-09T12:16:56.171Z,24.12
2018-09-09T12:17:56.333Z,24.12
2018-09-09T12:18:56.496Z,24.12
2018-09-09T12:19:57.730Z,24.12
2018-09-09T12:20:56.140Z,24.12
2018-09-09T12:21:56.014Z,24.19
2018-09-09T12:22:57.154Z,24.19
2018-09-09T12:23:57.143Z,24.25
2018-09-09T12:24:56.247Z,24.25
2018-09-09T12:25:56.089Z,24.31
2018-09-09T12:26:56.226Z,24.31
2018-09-09T12:27:56.265Z,24.37
2018-09-09T12:28:56.325Z,24.44
2018-09-09T12:29:56.215Z,24.37
2018-09-09T12:30:56.272Z,24.37
2018-09-09T12:31:56.046Z,24.37
2018-09-09T12:32:56.173Z,24.44
2018-09-09T12:33:56.061Z,24.44
2018-09-09T12:34:56.691Z,24.44
2018-09-09T12:35:56.775Z,24.44
2018-09-09T12:36:56.294Z,24.44
2018-09-09T12:37:56.067Z,24.5
2018-09-09T12:38:56.283Z,24.5
2018-09-09T12:39:56.277Z,24.56
2018-09-09T12:40:56.101Z,24.63
2018-09-09T12:41:56.485Z,24.75
2018-09-09T12:42:56.131Z,24.81
2018-09-09T12:43:56.138Z,24.75
2018-09-09T12:44:56.179Z,24.81
2018-09-09T12:45:56.241Z,24.75
2018-09-09T12:46:56.263Z,24.81
2018-09-09T12:47:56.183Z,24.81
2018-09-09T12:48:56.332Z,24.87
2018-09-09T12:49:56.290Z,24.94
2018-09-09T12:50:58.028Z,25
2018-09-09T12:51:56.211Z,24.87
2018-09-09T12:52:56.143Z,24.87
2018-09-09T12:53:56.106Z,24.87
2018-09-09T12:54:56.142Z,24.94
2018-09-09T12:55:56.142Z,25
2018-09-09T12:56:56.235Z,24.94
2018-09-09T12:57:56.041Z,24.87
2018-09-09T12:58:56.100Z,24.94
2018-09-09T12:59:56.147Z,24.94